Aérodrome :
LOGIN :

S'inscrire | Disclaimer

   EN    FR    IT 

 










Légende :    VFR   VFR Marginal   IFR   IFR Intensif   IFR Très Intensif
Visi : 
Plafond : 
>= 8 km
>= 3000ft
5 à 8 km
1000 à 3000 ft
1500m à 5 km
500 à 1000 ft
800 à 1500m
200 à 500 ft
< 800m
< 200 ft
Symboles :   Orages  Brouillard  Fortes neiges  Fortes précipitations  Vent > 20 kt
SIGMETs :   Divers  Orages  Givrage  Turbulence  Onde Orograph.  Cendres Volcan.







- Altitude de l'aérodrome : 7 ft
- Code IATA : XHE
- Voir les cartes d'approche


LFTH - Hyeres

DERNIER METAR :
  • 191230Z AUTO 22007KT 180V270 CAVOK 31/20 Q1017 NOSIG

METARs EXPIRÉS :
  • 191200Z AUTO 16005KT 080V240 CAVOK 31/19 Q1017 NOSIG
  • 191130Z AUTO 16005KT 090V210 CAVOK 31/18 Q1017 NOSIG
  • 191100Z AUTO 15006KT 090V200 CAVOK 31/18 Q1017 NOSIG
  • 191030Z AUTO 14007KT 100V180 CAVOK 30/18 Q1017 NOSIG
  • 191000Z AUTO 14006KT 110V190 CAVOK 31/17 Q1017 NOSIG

TAF TAF LFTH
Valide du 19 à 09h jusqu'au 20 à 09h UTC


190800Z 1909/2009 VRB02KT CAVOK
TEMPO 1912/1919 18012KT
Pas de NOTAMs connus pour ce terrain.
1 SIGMET publié pour la FIR Marseille (LFMM) :
 
Orages noyés dans la masse
LFMM SIGMET 5 VALID 191000/191300 LFPW
LFMM MARSEILLE FIR/UIR EMBD TS OBS WI N4115 E00800 - N3900 E00800 - N3900 E00430 - N4100 E00430 - N4200 E00800 - N4115 E00800 TOP FL380 STNR NC=



MET'MAP, la Météo Aéronautique d'un coup d'oeil ! - Copyright ORBIFLY Décembre 2007 - Disclaimer

ORBIFLY MET'MAP TEAM :

Programmation & Développement : Alexandra Zaïnal
Conception & Développement : Baudouin d'Aumeries
Co-Programmation & Développement : Marc-Olivier Méhu
Soutien technique & logistique : Manuel Goepfert

Contact : metmap@orbifly.com




SOURCES & CREDITS :

   NOAA